Time;durP1;ratioP1;P1;durP2;ratioP2;P2;SDS_P1;SDS_P2;PMS_P1;PMS_P2;Temp;Humidity;BMP_temperature;BMP_pressure;BME280_temperature;BME280_humidity;BME280_pressure;Samples;Min_cycle;Max_cycle;Signal;HPM_P1;HPM_P2
2023/11/29 00:04:48;;;;;;;6.50;5.90;;;;;;;1.84;72.96;99325.72;10244147;28;21182;-61
2023/11/29 00:09:50;;;;;;;6.93;6.32;;;;;;;1.73;72.97;99323.72;10254685;28;20448;-64
2023/11/29 00:14:51;;;;;;;7.43;6.72;;;;;;;1.76;73.16;99329.63;10254660;28;20545;-60
2023/11/29 00:19:54;;;;;;;7.95;6.13;;;;;;;1.72;73.55;99311.53;10226632;28;20174;-63
2023/11/29 00:24:55;;;;;;;7.72;6.55;;;;;;;1.56;73.99;99307.19;10234891;28;20063;-61
2023/11/29 00:29:56;;;;;;;7.70;6.68;;;;;;;1.45;74.39;99293.03;10256938;28;20502;-64
2023/11/29 00:34:59;;;;;;;6.82;6.20;;;;;;;1.39;74.48;99279.31;10254826;28;20043;-64
2023/11/29 00:40:01;;;;;;;8.90;7.22;;;;;;;1.48;74.53;99300.72;10257525;28;20097;-63
2023/11/29 00:45:03;;;;;;;7.22;6.53;;;;;;;1.46;74.67;99305.22;10243036;28;20058;-64
2023/11/29 00:50:05;;;;;;;7.30;6.55;;;;;;;1.49;74.80;99311.09;10250654;28;20069;-63
2023/11/29 00:55:06;;;;;;;8.98;7.30;;;;;;;1.45;74.60;99314.00;10222110;28;20153;-64
2023/11/29 01:00:08;;;;;;;7.80;7.10;;;;;;;1.26;74.93;99296.69;10254224;28;20537;-62
2023/11/29 01:05:10;;;;;;;7.50;6.78;;;;;;;1.35;74.66;99298.81;10231660;28;20059;-63
2023/11/29 01:10:11;;;;;;;7.85;7.05;;;;;;;1.47;74.94;99289.38;10223323;28;20055;-62
2023/11/29 01:15:13;;;;;;;8.52;7.55;;;;;;;1.47;74.79;99292.00;10237801;28;20175;-62
2023/11/29 01:20:15;;;;;;;7.82;7.13;;;;;;;1.45;74.99;99279.91;10242331;28;20062;-66
2023/11/29 01:25:16;;;;;;;8.55;7.57;;;;;;;1.56;74.61;99278.34;10206008;28;20619;-63
2023/11/29 01:30:19;;;;;;;8.93;7.63;;;;;;;1.47;74.71;99267.53;10238575;28;21320;-64
2023/11/29 01:35:21;;;;;;;8.77;7.93;;;;;;;1.51;74.68;99274.28;10197471;28;20046;-63
2023/11/29 01:40:23;;;;;;;9.00;8.20;;;;;;;1.51;74.64;99271.66;10243638;28;20053;-64
2023/11/29 01:45:27;;;;;;;7.93;7.13;;;;;;;1.33;74.41;99258.69;10249349;28;20057;-61
2023/11/29 01:50:35;;;;;;;8.57;7.78;;;;;;;1.39;73.90;99260.13;10256246;28;20134;-64
2023/11/29 01:55:40;;;;;;;8.70;7.95;;;;;;;1.36;74.17;99260.31;10230676;28;20043;-65
2023/11/29 02:00:41;;;;;;;8.73;7.90;;;;;;;1.33;73.89;99258.69;10247921;28;20704;-64
2023/11/29 02:05:43;;;;;;;8.50;7.63;;;;;;;1.35;74.12;99248.97;10241175;28;20051;-64
2023/11/29 02:10:46;;;;;;;8.23;7.18;;;;;;;1.31;73.93;99249.25;10251627;28;20066;-64
2023/11/29 02:15:47;;;;;;;8.25;7.45;;;;;;;1.24;73.24;99227.78;10246810;28;20059;-65
2023/11/29 02:20:49;;;;;;;9.07;7.75;;;;;;;1.28;73.30;99226.66;10244812;28;20050;-64
2023/11/29 02:25:51;;;;;;;7.47;6.72;;;;;;;1.28;73.55;99213.56;10251742;28;20055;-65
2023/11/29 02:30:52;;;;;;;8.90;8.10;;;;;;;1.31;72.96;99215.16;10248365;28;20059;-65
2023/11/29 02:35:54;;;;;;;8.55;7.75;;;;;;;1.24;74.30;99212.03;10230517;28;20056;-64
2023/11/29 02:40:55;;;;;;;9.15;7.45;;;;;;;1.16;73.22;99202.00;10208701;28;20057;-62
2023/11/29 02:45:59;;;;;;;8.40;7.22;;;;;;;1.09;73.77;99199.84;10250333;28;20057;-63
2023/11/29 02:51:00;;;;;;;8.00;7.20;;;;;;;1.03;73.51;99201.03;10236190;28;20061;-62
2023/11/29 02:56:02;;;;;;;10.88;7.05;;;;;;;0.96;73.71;99187.44;10248359;28;20105;-63
2023/11/29 03:01:04;;;;;;;11.65;7.10;;;;;;;1.01;73.80;99189.81;10248564;28;20062;-63
2023/11/29 03:06:05;;;;;;;7.38;6.60;;;;;;;1.01;74.43;99185.41;10250511;28;20101;-63
2023/11/29 03:11:07;;;;;;;8.75;7.90;;;;;;;1.01;73.83;99172.28;10239146;28;20136;-63
2023/11/29 03:16:09;;;;;;;8.40;7.65;;;;;;;1.02;73.28;99160.03;10249322;28;20061;-64
2023/11/29 03:21:11;;;;;;;10.23;8.15;;;;;;;1.01;73.56;99161.81;10246890;28;20800;-64
2023/11/29 03:26:14;;;;;;;8.77;7.50;;;;;;;0.93;73.40;99161.44;10247164;28;20061;-64
2023/11/29 03:31:17;;;;;;;8.53;7.63;;;;;;;1.01;73.87;99153.13;10233739;28;20055;-64
2023/11/29 03:36:19;;;;;;;9.32;8.43;;;;;;;0.94;73.40;99149.16;10247360;28;20653;-64
2023/11/29 03:41:21;;;;;;;9.07;8.18;;;;;;;0.86;73.65;99149.59;10243104;28;20769;-63
2023/11/29 03:46:23;;;;;;;9.10;8.20;;;;;;;0.93;74.08;99144.84;10223398;28;20055;-63
2023/11/29 03:51:24;;;;;;;9.52;8.63;;;;;;;0.91;73.77;99123.97;10252168;28;20089;-63
2023/11/29 03:56:29;;;;;;;11.32;8.55;;;;;;;0.70;73.87;99108.56;10249119;28;20103;-63
2023/11/29 04:01:32;;;;;;;10.40;8.68;;;;;;;0.73;74.72;99107.53;10240118;28;20153;-64
2023/11/29 04:06:34;;;;;;;10.32;8.80;;;;;;;0.80;74.81;99119.34;10236624;28;20435;-63
2023/11/29 04:11:36;;;;;;;10.70;9.60;;;;;;;0.74;74.59;99101.38;10247048;28;20676;-64
2023/11/29 04:16:38;;;;;;;10.00;9.00;;;;;;;0.74;74.80;99098.75;10241210;28;20134;-64
2023/11/29 04:21:41;;;;;;;12.10;10.07;;;;;;;0.68;74.94;99094.72;10244769;28;20086;-63
2023/11/29 04:26:42;;;;;;;10.93;9.80;;;;;;;0.79;75.62;99086.22;10249118;28;20061;-62
2023/11/29 04:31:45;;;;;;;10.30;9.30;;;;;;;0.75;75.35;99091.72;10237750;28;20058;-64
2023/11/29 04:36:46;;;;;;;11.90;10.80;;;;;;;0.79;75.46;99088.00;10251506;28;20061;-64
2023/11/29 04:41:51;;;;;;;10.63;8.93;;;;;;;0.89;75.76;99083.91;10239448;28;20110;-64
2023/11/29 04:46:53;;;;;;;11.15;9.57;;;;;;;0.87;75.85;99077.91;10219240;28;20058;-64
2023/11/29 04:51:54;;;;;;;10.60;9.52;;;;;;;0.79;76.36;99075.75;10187313;28;20675;-64
2023/11/29 04:56:56;;;;;;;11.43;10.23;;;;;;;0.91;76.05;99071.56;10195329;28;20040;-63
2023/11/29 05:01:58;;;;;;;11.68;10.13;;;;;;;0.70;76.89;99064.03;10213784;28;20733;-63
2023/11/29 05:07:00;;;;;;;10.68;9.40;;;;;;;0.67;77.45;99048.50;10237659;28;20199;-64
2023/11/29 05:12:03;;;;;;;10.77;8.93;;;;;;;0.52;77.48;99024.03;10239054;28;20645;-63
2023/11/29 05:17:04;;;;;;;11.52;9.40;;;;;;;0.64;78.26;99045.22;10225904;28;20703;-63
2023/11/29 05:22:07;;;;;;;10.38;9.27;;;;;;;0.77;78.10;99040.13;10251414;28;20134;-62
2023/11/29 05:27:10;;;;;;;10.43;9.30;;;;;;;0.65;78.60;99049.53;10196471;28;20099;-63
2023/11/29 05:32:12;;;;;;;10.05;9.02;;;;;;;0.78;78.14;99049.63;10232955;28;20132;-63
2023/11/29 05:37:16;;;;;;;10.80;9.25;;;;;;;0.73;78.60;99028.13;10238459;28;20604;-64
2023/11/29 05:42:17;;;;;;;10.52;9.30;;;;;;;0.71;78.95;99033.47;10245738;28;20131;-62
2023/11/29 05:47:19;;;;;;;12.38;10.43;;;;;;;0.76;79.40;99043.66;10249839;28;20075;-64
2023/11/29 05:52:20;;;;;;;12.32;10.38;;;;;;;0.74;78.99;99046.38;10240944;28;20047;-63
2023/11/29 05:57:22;;;;;;;10.68;9.57;;;;;;;0.85;79.55;99043.94;10243595;28;20236;-64
2023/11/29 06:02:23;;;;;;;11.30;9.68;;;;;;;0.84;79.63;99034.41;10252290;28;20065;-64
2023/11/29 06:07:25;;;;;;;12.35;9.18;;;;;;;0.94;79.31;99026.81;10216121;28;20279;-64
2023/11/29 06:12:29;;;;;;;10.77;9.10;;;;;;;0.92;79.22;99036.56;10255932;28;20053;-64
2023/11/29 06:17:32;;;;;;;13.52;10.13;;;;;;;0.81;79.75;99028.50;10195872;28;20053;-65
2023/11/29 06:22:36;;;;;;;10.57;9.30;;;;;;;0.91;79.86;99029.63;10217919;28;20102;-64
2023/11/29 06:27:38;;;;;;;11.10;9.68;;;;;;;0.97;80.42;99020.56;10224252;28;20070;-64
2023/11/29 06:32:41;;;;;;;11.73;9.88;;;;;;;1.00;79.67;99004.66;10235369;28;20134;-67
2023/11/29 06:37:48;;;;;;;11.57;10.05;;;;;;;1.09;79.65;99021.59;10245274;28;20051;-64
2023/11/29 06:43:02;;;;;;;11.77;9.43;;;;;;;1.02;80.15;99018.50;10249877;28;20061;-64
2023/11/29 06:48:04;;;;;;;11.40;9.70;;;;;;;1.06;80.67;99023.47;10221435;28;20054;-66
2023/11/29 06:53:07;;;;;;;12.57;10.05;;;;;;;1.15;80.80;99023.84;10248718;28;20525;-63
2023/11/29 06:58:09;;;;;;;12.10;9.95;;;;;;;1.26;80.76;99031.88;10240160;28;20145;-64
2023/11/29 07:03:19;;;;;;;12.25;10.18;;;;;;;1.25;80.63;99027.59;10224852;28;20532;-64
2023/11/29 07:08:22;;;;;;;12.25;10.10;;;;;;;1.34;80.80;99019.16;10215256;28;20058;-64
2023/11/29 07:13:25;;;;;;;16.80;10.75;;;;;;;1.14;81.71;98998.56;10245447;28;20141;-63
2023/11/29 07:18:26;;;;;;;11.88;10.32;;;;;;;1.35;81.04;99025.22;10248761;28;20059;-65
2023/11/29 07:23:28;;;;;;;11.38;9.88;;;;;;;1.23;81.49;99021.59;10236341;28;20051;-63
2023/11/29 07:28:31;;;;;;;13.48;10.05;;;;;;;1.39;81.59;99017.06;10213878;28;20040;-62
2023/11/29 07:33:32;;;;;;;16.50;10.85;;;;;;;1.44;81.40;99010.72;10200975;28;20050;-62
2023/11/29 07:38:34;;;;;;;12.95;10.43;;;;;;;1.49;81.16;99006.03;10238093;28;20599;-62
2023/11/29 07:43:36;;;;;;;11.27;9.90;;;;;;;1.53;81.34;99008.38;10240805;28;20058;-64
2023/11/29 07:48:38;;;;;;;12.75;10.27;;;;;;;1.60;81.33;99008.81;10224667;28;20789;-62
2023/11/29 07:53:40;;;;;;;12.35;10.25;;;;;;;1.51;82.04;98996.28;10245973;28;20457;-63
2023/11/29 07:58:41;;;;;;;12.60;10.48;;;;;;;1.55;82.41;99008.25;10229774;28;20058;-63
2023/11/29 08:03:43;;;;;;;11.93;9.52;;;;;;;1.54;82.48;98989.03;10228978;28;20054;-63
2023/11/29 08:08:49;;;;;;;12.10;10.15;;;;;;;1.65;82.58;98985.75;10226332;28;20051;-64
2023/11/29 08:13:51;;;;;;;11.63;9.68;;;;;;;1.64;83.03;98988.50;10225299;28;20978;-62
2023/11/29 08:18:53;;;;;;;13.23;11.15;;;;;;;1.65;83.05;98991.00;10242439;28;20066;-63
2023/11/29 08:23:54;;;;;;;14.40;11.27;;;;;;;1.65;83.58;98991.00;10239407;28;20477;-62
2023/11/29 08:28:58;;;;;;;11.82;10.25;;;;;;;1.75;84.00;98986.81;10230707;28;20245;-63
2023/11/29 08:34:01;;;;;;;13.50;10.27;;;;;;;1.88;84.12;98993.94;10234460;28;20165;-62
2023/11/29 08:39:03;;;;;;;11.88;9.55;;;;;;;1.87;84.20;98979.94;10245673;28;20050;-62
2023/11/29 08:44:06;;;;;;;13.93;11.63;;;;;;;1.90;84.82;98977.13;10253341;28;20051;-62
2023/11/29 08:49:08;;;;;;;13.07;10.10;;;;;;;2.07;84.86;98976.03;10255540;28;20059;-63
2023/11/29 08:54:10;;;;;;;14.60;11.07;;;;;;;2.13;84.60;98964.28;10255784;28;20059;-60
2023/11/29 08:59:12;;;;;;;13.52;10.95;;;;;;;2.25;84.65;98973.13;10240531;28;20046;-64
2023/11/29 09:04:13;;;;;;;14.10;11.55;;;;;;;2.04;85.69;98965.75;10254069;28;20579;-63
2023/11/29 09:09:16;;;;;;;12.63;10.68;;;;;;;2.00;86.14;98964.25;10257513;28;20054;-63
2023/11/29 09:14:19;;;;;;;13.90;11.32;;;;;;;2.12;86.54;98963.44;10213007;28;20214;-63
2023/11/29 09:19:21;;;;;;;14.00;11.45;;;;;;;2.20;86.57;98957.69;10252358;28;20047;-61
2023/11/29 09:24:22;;;;;;;14.27;11.02;;;;;;;2.12;87.20;98958.19;10219130;28;20050;-63
2023/11/29 09:29:30;;;;;;;13.32;10.30;;;;;;;2.17;87.36;98955.25;10249764;28;20058;-62
2023/11/29 09:34:32;;;;;;;12.18;10.65;;;;;;;2.28;87.25;98951.91;10235284;28;20289;-63
2023/11/29 09:39:33;;;;;;;13.75;10.52;;;;;;;2.14;87.04;98939.72;10227214;28;20060;-61
2023/11/29 09:44:39;;;;;;;13.52;9.40;;;;;;;2.26;87.12;98959.06;10236365;28;20043;-63
2023/11/29 09:49:43;;;;;;;14.68;10.95;;;;;;;2.36;87.42;98954.88;10226188;28;20568;-64
2023/11/29 09:54:45;;;;;;;13.25;10.57;;;;;;;2.52;87.14;98957.28;10214885;28;20058;-63
2023/11/29 09:59:50;;;;;;;11.25;10.05;;;;;;;2.42;86.51;98964.97;10247463;28;20703;-63
2023/11/29 10:04:53;;;;;;;12.13;9.73;;;;;;;2.42;87.33;98959.72;10237028;28;20043;-64
2023/11/29 10:10:02;;;;;;;10.23;9.13;;;;;;;2.43;87.89;98948.28;10228126;28;20109;-63
2023/11/29 10:15:07;;;;;;;11.90;10.00;;;;;;;2.33;88.73;98939.31;10229337;28;20112;-63
2023/11/29 10:20:13;;;;;;;11.68;9.45;;;;;;;2.28;88.88;98915.16;10246556;28;20058;-64
2023/11/29 10:25:20;;;;;;;10.32;9.18;;;;;;;2.39;89.87;98948.59;10252413;28;20046;-63
2023/11/29 10:30:25;;;;;;;11.43;9.48;;;;;;;2.42;90.10;98943.97;10222309;28;20066;-64
2023/11/29 10:35:35;;;;;;;10.00;8.80;;;;;;;2.55;89.82;98932.59;10246871;28;20070;-64
2023/11/29 10:40:44;;;;;;;11.02;8.95;;;;;;;2.65;89.78;98941.53;10243532;28;20054;-63
2023/11/29 10:45:49;;;;;;;9.55;8.50;;;;;;;2.72;89.02;98921.78;10249816;28;20141;-64
2023/11/29 10:50:53;;;;;;;10.65;9.20;;;;;;;2.76;88.70;98931.16;10236318;28;20082;-64
2023/11/29 10:55:54;;;;;;;8.85;7.82;;;;;;;2.69;88.70;98916.75;10244832;28;20043;-64
2023/11/29 11:00:56;;;;;;;10.93;8.05;;;;;;;2.67;88.74;98930.94;10236656;28;20110;-64
2023/11/29 11:06:23;;;;;;;9.35;8.45;;;;;;;2.70;88.85;98926.28;10249531;28;20658;-63
2023/11/29 11:11:47;;;;;;;9.05;8.15;;;;;;;2.57;89.57;98926.31;10234135;28;20070;-64
2023/11/29 11:16:59;;;;;;;10.38;8.77;;;;;;;2.57;89.78;98928.09;10241556;28;20057;-64
2023/11/29 11:22:02;;;;;;;9.88;8.88;;;;;;;2.49;90.79;98918.09;10229809;28;20599;-64
2023/11/29 11:27:06;;;;;;;9.32;8.32;;;;;;;2.60;90.28;98893.75;10243547;28;20144;-65
2023/11/29 11:32:08;;;;;;;12.27;9.63;;;;;;;2.74;90.13;98895.41;10217970;28;20109;-64
2023/11/29 11:37:09;;;;;;;9.43;8.27;;;;;;;2.79;90.22;98909.91;10235208;28;20111;-64
2023/11/29 11:42:13;;;;;;;10.05;8.27;;;;;;;2.81;89.84;98908.00;10203740;28;20056;-63
2023/11/29 11:47:15;;;;;;;9.63;7.93;;;;;;;2.90;89.77;98906.53;10242183;28;21401;-61
2023/11/29 11:52:17;;;;;;;10.00;7.97;;;;;;;2.73;90.12;98893.72;10245721;28;20051;-66
2023/11/29 11:57:19;;;;;;;10.77;8.63;;;;;;;2.79;90.27;98894.13;10233809;28;20109;-64
2023/11/29 12:02:23;;;;;;;11.27;9.38;;;;;;;2.84;90.09;98885.94;10243466;28;20055;-65
2023/11/29 12:07:25;;;;;;;9.32;8.23;;;;;;;2.83;90.21;98879.81;10228445;28;20635;-64
2023/11/29 12:12:28;;;;;;;10.75;9.65;;;;;;;2.85;89.96;98868.38;10231159;28;20059;-64
2023/11/29 12:17:34;;;;;;;11.75;9.27;;;;;;;2.87;89.91;98869.09;10219505;28;20089;-65
2023/11/29 12:22:44;;;;;;;12.05;9.23;;;;;;;2.89;90.27;98872.47;10238108;28;20710;-64
2023/11/29 12:27:47;;;;;;;9.60;8.57;;;;;;;3.01;89.88;98890.00;10243796;28;20199;-65
2023/11/29 12:32:49;;;;;;;13.85;9.05;;;;;;;3.05;89.68;98891.47;10249827;28;20051;-63
2023/11/29 12:37:54;;;;;;;10.63;9.05;;;;;;;3.03;90.22;98890.72;10245080;28;20063;-65
2023/11/29 12:42:55;;;;;;;10.85;8.88;;;;;;;3.07;90.33;98876.41;10223104;28;20054;-64
2023/11/29 12:48:01;;;;;;;10.43;9.43;;;;;;;3.12;89.82;98879.56;10242006;28;20054;-62
2023/11/29 12:53:05;;;;;;;10.18;9.10;;;;;;;3.16;89.51;98859.97;10236088;28;20106;-64
2023/11/29 12:58:09;;;;;;;9.70;7.47;;;;;;;3.14;89.95;98871.56;10234653;28;20667;-64
2023/11/29 13:03:10;;;;;;;10.23;9.13;;;;;;;3.22;90.22;98863.13;10244557;28;20468;-63
2023/11/29 13:08:12;;;;;;;9.68;8.65;;;;;;;3.18;90.10;98858.06;10231871;28;20051;-66
2023/11/29 13:13:13;;;;;;;9.65;8.65;;;;;;;3.32;89.69;98872.84;10248483;28;20050;-62
2023/11/29 13:18:17;;;;;;;10.32;8.85;;;;;;;3.30;89.25;98850.22;10243609;28;20062;-63
2023/11/29 13:23:19;;;;;;;9.38;8.25;;;;;;;3.47;89.00;98857.75;10219884;28;20536;-66
2023/11/29 13:28:26;;;;;;;9.82;8.55;;;;;;;3.38;88.61;98849.66;10227945;28;20733;-67
2023/11/29 13:33:30;;;;;;;10.55;9.45;;;;;;;3.52;88.31;98863.50;10232103;28;20114;-63
2023/11/29 13:38:32;;;;;;;11.50;8.82;;;;;;;3.57;88.25;98865.78;10247674;28;20047;-64
2023/11/29 13:43:34;;;;;;;9.45;8.52;;;;;;;3.55;88.56;98865.06;10252377;28;20640;-66
2023/11/29 13:48:36;;;;;;;12.05;8.60;;;;;;;3.62;88.36;98868.06;10251776;28;20059;-63
2023/11/29 13:53:37;;;;;;;10.15;8.10;;;;;;;3.69;88.04;98874.56;10246034;28;20057;-64
2023/11/29 13:58:39;;;;;;;11.30;8.30;;;;;;;3.77;88.31;98869.59;10253251;28;20453;-63
2023/11/29 14:03:41;;;;;;;10.27;8.55;;;;;;;3.68;88.60;98863.22;10247560;28;20050;-63
2023/11/29 14:08:47;;;;;;;9.82;8.68;;;;;;;3.72;88.08;98871.72;10239692;28;20058;-63
2023/11/29 14:13:49;;;;;;;9.02;8.13;;;;;;;3.80;87.70;98874.63;10188210;28;20129;-62
2023/11/29 14:18:51;;;;;;;9.25;7.82;;;;;;;3.79;87.62;98867.66;10237496;28;20181;-64
2023/11/29 14:23:53;;;;;;;9.45;8.25;;;;;;;3.86;87.43;98873.34;10248302;28;20106;-63
2023/11/29 14:28:54;;;;;;;9.00;8.07;;;;;;;3.92;87.34;98874.66;10248854;28;20683;-64
2023/11/29 14:33:56;;;;;;;9.45;8.35;;;;;;;3.96;87.13;98873.47;10234782;28;20069;-62
2023/11/29 14:38:58;;;;;;;8.65;7.47;;;;;;;4.01;86.48;98866.06;10240356;28;20095;-64
2023/11/29 14:43:59;;;;;;;8.77;6.82;;;;;;;4.01;85.79;98874.81;10247331;28;20047;-64
2023/11/29 14:49:01;;;;;;;9.52;7.13;;;;;;;3.91;85.07;98862.47;10229797;28;20055;-64
2023/11/29 14:54:03;;;;;;;6.75;5.90;;;;;;;3.93;85.02;98868.44;10246733;28;20065;-63
2023/11/29 14:59:05;;;;;;;7.20;6.47;;;;;;;3.85;84.78;98858.47;10246280;28;20064;-67
2023/11/29 15:04:06;;;;;;;7.55;6.35;;;;;;;3.86;84.75;98874.16;10221056;28;20047;-64
2023/11/29 15:09:10;;;;;;;6.40;5.50;;;;;;;3.77;85.05;98864.31;10210712;28;20087;-64
2023/11/29 15:14:12;;;;;;;6.70;5.47;;;;;;;3.79;85.51;98865.03;10223518;28;20042;-60
2023/11/29 15:19:14;;;;;;;5.88;5.28;;;;;;;3.81;85.27;98878.91;10227146;28;20062;-64
2023/11/29 15:24:15;;;;;;;6.40;5.68;;;;;;;3.85;84.92;98871.66;10222600;28;20100;-63
2023/11/29 15:29:17;;;;;;;6.65;5.95;;;;;;;3.76;85.06;98888.97;10203914;28;20046;-64
2023/11/29 15:34:18;;;;;;;9.02;7.03;;;;;;;3.76;85.03;98888.97;10242953;28;20062;-64
2023/11/29 15:39:20;;;;;;;6.63;5.88;;;;;;;3.80;85.42;98897.44;10219015;28;20058;-62
2023/11/29 15:44:22;;;;;;;8.93;6.00;;;;;;;3.78;85.25;98902.00;10238357;28;20066;-71
2023/11/29 15:49:23;;;;;;;7.50;5.72;;;;;;;3.76;85.16;98896.84;10244834;28;20111;-65
2023/11/29 15:54:25;;;;;;;6.18;5.57;;;;;;;3.65;85.32;98886.28;10242058;28;20257;-63
2023/11/29 15:59:26;;;;;;;6.35;5.75;;;;;;;3.61;85.77;98900.63;10233811;28;20155;-64
2023/11/29 16:04:30;;;;;;;6.28;5.45;;;;;;;3.57;86.21;98904.44;10229578;28;20144;-64
2023/11/29 16:09:31;;;;;;;7.45;6.45;;;;;;;3.52;86.49;98902.97;10245195;28;20058;-63
2023/11/29 16:14:33;;;;;;;8.00;6.53;;;;;;;3.57;86.37;98905.25;10214304;28;20152;-64
2023/11/29 16:19:34;;;;;;;6.65;5.95;;;;;;;3.53;86.13;98903.81;10234242;28;20063;-64
2023/11/29 16:24:36;;;;;;;6.90;6.20;;;;;;;3.51;86.20;98911.81;10239575;28;20046;-64
2023/11/29 16:29:39;;;;;;;7.07;6.25;;;;;;;3.42;86.50;98912.47;10244914;28;20110;-64
2023/11/29 16:34:40;;;;;;;8.20;7.40;;;;;;;3.27;87.06;98913.56;10233245;28;20069;-65
2023/11/29 16:39:42;;;;;;;7.15;6.45;;;;;;;3.37;87.20;98909.34;10246530;28;20050;-63
2023/11/29 16:44:46;;;;;;;6.35;5.75;;;;;;;3.36;86.89;98913.78;10224510;28;20066;-63
2023/11/29 16:49:49;;;;;;;6.80;6.03;;;;;;;3.37;87.46;98911.97;10239217;28;20657;-65
2023/11/29 16:54:52;;;;;;;6.80;6.10;;;;;;;3.35;87.62;98906.00;10240188;28;20091;-64
2023/11/29 16:59:55;;;;;;;7.20;6.55;;;;;;;3.41;87.56;98912.56;10255934;28;20058;-65
2023/11/29 17:04:58;;;;;;;7.72;6.00;;;;;;;3.32;87.78;98911.47;10214902;28;20143;-61
2023/11/29 17:10:00;;;;;;;7.80;6.65;;;;;;;3.42;87.65;98915.09;10228643;28;20093;-65
2023/11/29 17:15:01;;;;;;;6.93;6.22;;;;;;;3.42;87.02;98901.13;10252980;28;20055;-64
2023/11/29 17:20:03;;;;;;;7.70;6.85;;;;;;;3.45;86.85;98917.53;10245949;28;20677;-65
2023/11/29 17:25:04;;;;;;;8.20;6.25;;;;;;;3.44;86.76;98904.47;10234064;28;20145;-63
2023/11/29 17:30:07;;;;;;;6.60;6.00;;;;;;;3.49;87.00;98920.78;10205516;28;20096;-65
2023/11/29 17:35:08;;;;;;;6.82;6.13;;;;;;;3.52;87.03;98918.75;10209833;28;20559;-66
2023/11/29 17:40:13;;;;;;;7.78;6.80;;;;;;;3.58;86.55;98928.00;10250566;28;20117;-66
2023/11/29 17:45:15;;;;;;;7.75;6.30;;;;;;;3.57;87.03;98925.47;10238609;28;20531;-66
2023/11/29 17:50:17;;;;;;;7.95;6.60;;;;;;;3.39;87.32;98907.44;10224805;28;20453;-65
2023/11/29 17:55:18;;;;;;;6.47;5.88;;;;;;;3.52;86.85;98929.28;10247738;28;20122;-65
2023/11/29 18:00:21;;;;;;;7.63;6.55;;;;;;;3.61;86.61;98932.19;10214017;28;20057;-65
2023/11/29 18:05:23;;;;;;;8.23;6.63;;;;;;;3.48;86.60;98914.69;10231346;28;20055;-64
2023/11/29 18:10:24;;;;;;;7.25;6.53;;;;;;;3.60;86.38;98930.50;10251296;28;20043;-65
2023/11/29 18:15:26;;;;;;;7.22;6.53;;;;;;;3.49;87.03;98918.97;10244531;28;20492;-67
2023/11/29 18:20:27;;;;;;;6.82;6.22;;;;;;;3.53;87.15;98919.59;10205347;28;20953;-67
2023/11/29 18:25:28;;;;;;;7.38;6.25;;;;;;;3.49;87.32;98918.13;10242918;28;20057;-66
2023/11/29 18:30:30;;;;;;;8.07;6.80;;;;;;;3.52;87.86;98928.44;10243431;28;20060;-69
2023/11/29 18:35:31;;;;;;;9.45;7.78;;;;;;;3.44;87.49;98913.22;10235749;28;20057;-65
2023/11/29 18:40:33;;;;;;;8.77;7.93;;;;;;;3.56;87.75;98934.31;10233667;28;20066;-69
2023/11/29 18:45:36;;;;;;;8.38;7.45;;;;;;;3.60;87.75;98935.78;10216947;28;20306;-65
2023/11/29 18:50:40;;;;;;;8.18;7.45;;;;;;;3.57;87.91;98933.38;10245966;28;20054;-65
2023/11/29 18:55:41;;;;;;;9.82;8.63;;;;;;;3.44;88.01;98920.25;10229558;28;20055;-65
2023/11/29 19:00:43;;;;;;;8.63;7.68;;;;;;;3.52;88.05;98934.53;10252402;28;20055;-64
2023/11/29 19:05:47;;;;;;;9.68;8.68;;;;;;;3.51;88.40;98943.41;10207648;28;20063;-64
2023/11/29 19:10:49;;;;;;;9.15;8.25;;;;;;;3.38;88.78;98925.94;10250599;28;20121;-65
2023/11/29 19:15:51;;;;;;;9.55;8.63;;;;;;;3.19;88.89;98899.19;10227274;28;20070;-65
2023/11/29 19:20:52;;;;;;;8.93;8.13;;;;;;;3.52;89.08;98939.78;10217241;28;20055;-64
2023/11/29 19:25:54;;;;;;;9.40;7.97;;;;;;;3.53;88.89;98925.69;10207119;28;20133;-63
2023/11/29 19:30:56;;;;;;;9.25;8.35;;;;;;;3.51;89.18;98932.88;10233454;28;20050;-64
2023/11/29 19:35:57;;;;;;;9.95;8.70;;;;;;;3.48;89.56;98933.09;10224870;28;20046;-65
2023/11/29 19:40:59;;;;;;;9.57;8.57;;;;;;;3.45;90.13;98938.59;10229303;28;20051;-66
2023/11/29 19:46:00;;;;;;;12.38;11.07;;;;;;;3.54;89.99;98937.91;10230847;28;20047;-65
2023/11/29 19:51:03;;;;;;;13.27;11.88;;;;;;;3.69;89.67;98940.38;10224141;28;20054;-64
2023/11/29 19:56:05;;;;;;;10.82;9.60;;;;;;;3.67;89.30;98931.75;10245712;28;20047;-63
2023/11/29 20:01:07;;;;;;;12.02;10.82;;;;;;;3.71;89.62;98938.47;10214364;28;20117;-64
2023/11/29 20:06:08;;;;;;;15.90;14.30;;;;;;;3.79;89.34;98941.38;10219556;28;20588;-66
2023/11/29 20:11:10;;;;;;;12.13;10.93;;;;;;;3.78;89.89;98937.06;10240221;28;20602;-67
2023/11/29 20:16:14;;;;;;;12.82;11.15;;;;;;;3.76;89.54;98933.72;10231984;28;20130;-64
2023/11/29 20:21:15;;;;;;;11.07;9.98;;;;;;;3.72;89.81;98930.47;10222760;28;20047;-65
2023/11/29 20:26:17;;;;;;;12.93;11.73;;;;;;;3.77;90.51;98930.13;10255816;28;21923;-63
2023/11/29 20:31:23;;;;;;;67.28;61.28;;;;;;;3.85;90.13;98940.91;10248080;28;20058;-64
2023/11/29 20:36:25;;;;;;;22.27;20.48;;;;;;;3.87;90.06;98923.25;10224448;28;20576;-63
2023/11/29 20:41:28;;;;;;;12.18;10.93;;;;;;;3.92;89.82;98919.41;10243477;28;20049;-64
2023/11/29 20:46:30;;;;;;;13.63;12.23;;;;;;;3.89;90.40;98916.06;10254550;28;20579;-64
2023/11/29 20:51:33;;;;;;;39.22;35.65;;;;;;;3.88;90.89;98930.16;10237874;28;20138;-65
2023/11/29 20:56:37;;;;;;;11.40;10.07;;;;;;;3.85;91.06;98926.94;10234542;28;20054;-64
2023/11/29 21:01:39;;;;;;;10.60;9.47;;;;;;;3.83;91.62;98928.84;10244129;28;20694;-64
2023/11/29 21:06:40;;;;;;;19.20;17.40;;;;;;;3.93;91.66;98931.63;10231632;28;20560;-64
2023/11/29 21:11:42;;;;;;;12.70;11.40;;;;;;;3.97;91.96;98930.44;10240058;28;20057;-64
2023/11/29 21:16:43;;;;;;;12.07;10.88;;;;;;;3.96;91.68;98928.75;10239963;28;20047;-62
2023/11/29 21:21:45;;;;;;;81.10;73.15;;;;;;;3.97;91.83;98901.50;10251248;28;20047;-64
2023/11/29 21:26:47;;;;;;;17.48;15.57;;;;;;;4.03;91.73;98901.03;10250790;28;20055;-63
2023/11/29 21:31:50;;;;;;;13.30;11.57;;;;;;;3.99;91.99;98899.56;10237526;28;20062;-65
2023/11/29 21:36:56;;;;;;;27.20;24.30;;;;;;;3.91;92.17;98896.69;10247490;28;20408;-63
2023/11/29 21:41:58;;;;;;;31.98;27.30;;;;;;;3.89;92.27;98900.25;10222797;28;20060;-64
2023/11/29 21:46:59;;;;;;;34.33;29.27;;;;;;;3.92;92.62;98886.03;10220982;28;20796;-65
2023/11/29 21:52:01;;;;;;;14.30;12.80;;;;;;;3.91;92.67;98868.56;10224007;28;20068;-66
2023/11/29 21:57:03;;;;;;;14.80;12.57;;;;;;;4.00;92.43;98882.81;10215456;28;21391;-64
2023/11/29 22:02:06;;;;;;;13.73;12.38;;;;;;;4.02;92.74;98892.28;10245051;28;20252;-63
2023/11/29 22:07:09;;;;;;;11.82;10.40;;;;;;;4.07;92.58;98882.25;10200390;28;20103;-64
2023/11/29 22:12:11;;;;;;;12.85;11.55;;;;;;;4.10;92.01;98885.59;10204775;28;20050;-63
2023/11/29 22:17:13;;;;;;;14.18;12.48;;;;;;;4.17;92.07;98887.63;10197766;28;20144;-62
2023/11/29 22:22:14;;;;;;;12.40;10.00;;;;;;;4.19;91.70;98891.00;10235482;28;20723;-64
2023/11/29 22:27:16;;;;;;;13.90;11.23;;;;;;;4.19;91.99;98896.28;10243252;28;20521;-63
2023/11/29 22:32:17;;;;;;;11.32;10.23;;;;;;;4.11;91.87;98893.38;10236626;28;20072;-63
2023/11/29 22:37:19;;;;;;;11.00;9.82;;;;;;;4.16;91.90;98895.66;10229967;28;20681;-64
2023/11/29 22:42:20;;;;;;;30.52;21.85;;;;;;;4.08;91.58;98885.72;10233117;28;21691;-64
2023/11/29 22:47:22;;;;;;;11.45;9.88;;;;;;;4.20;92.07;98902.38;10240779;28;20051;-64
2023/11/29 22:52:25;;;;;;;10.93;9.82;;;;;;;4.16;91.71;98891.25;10245734;28;20831;-63
2023/11/29 22:57:26;;;;;;;11.32;10.13;;;;;;;4.17;91.94;98898.16;10249335;28;20055;-65
2023/11/29 23:02:30;;;;;;;10.80;9.10;;;;;;;4.20;91.80;98892.69;10248646;28;20062;-63
2023/11/29 23:07:32;;;;;;;12.07;10.87;;;;;;;4.06;92.22;98895.53;10223740;28;20042;-62
2023/11/29 23:12:33;;;;;;;12.50;11.20;;;;;;;4.10;92.31;98888.22;10247892;28;20059;-63
2023/11/29 23:17:35;;;;;;;11.68;10.35;;;;;;;4.15;92.36;98902.72;10239529;28;20669;-63
2023/11/29 23:22:36;;;;;;;11.95;9.85;;;;;;;4.14;92.39;98910.75;10226991;28;20138;-64
2023/11/29 23:27:38;;;;;;;13.15;11.45;;;;;;;4.13;92.57;98911.69;10241865;28;20674;-63
2023/11/29 23:32:39;;;;;;;13.25;11.48;;;;;;;4.00;92.27;98877.56;10254831;28;20107;-64